NYO weather

Stockholm Skavsta Airport
Stockholm / Nyköping, Södermanlands län, Sweden

Public forecast

Using degrees Celsius for public forecast. Weather courtesy of forecast.io.

Current aviation weather report (METAR) for Stockholm Skavsta Airport

Retrieved 2020/03/28 23:20 UTC (33 minutes ago):

ESKN 282320Z 02012KT 340V060 CAVOK 01/M12 Q1026 R08/0///95

Aviation forecast (TAF) for Stockholm Skavsta Airport

Retrieved 2020/03/28 18:00 UTC (6 hours ago):

TAF ESKN 281730Z 2818/2918 02012KT 9999 SCT040